Time;durP1;ratioP1;P1;durP2;ratioP2;P2;SDS_P1;SDS_P2;PMS_P1;PMS_P2;Temp;Humidity;BMP_temperature;BMP_pressure;BME280_temperature;BME280_humidity;BME280_pressure;Samples;Min_cycle;Max_cycle;Signal;HPM_P1;HPM_P2
2024/01/19 00:01:00;;;;;;;221.85;101.80;;;7.50;99.90;;;;;;5095411;28;20024;-54
2024/01/19 00:03:25;;;;;;;209.13;95.45;;;7.50;99.90;;;;;;5095412;28;20488;-54
2024/01/19 00:05:51;;;;;;;229.05;106.78;;;7.50;99.90;;;;;;5095397;28;20043;-54
2024/01/19 00:08:17;;;;;;;221.95;105.88;;;7.50;99.90;;;;;;5095303;28;20020;-54
2024/01/19 00:10:43;;;;;;;218.93;108.95;;;7.50;99.90;;;;;;5095390;28;20028;-54
2024/01/19 00:13:08;;;;;;;213.45;100.57;;;7.50;99.90;;;;;;5095102;28;20244;-54
2024/01/19 00:15:34;;;;;;;185.15;94.15;;;7.60;99.90;;;;;;5095656;28;20032;-54
2024/01/19 00:18:00;;;;;;;195.52;91.72;;;7.60;99.90;;;;;;5095234;28;20093;-54
2024/01/19 00:20:26;;;;;;;210.50;97.30;;;7.50;99.90;;;;;;5095287;28;20028;-54
2024/01/19 00:22:52;;;;;;;217.60;97.10;;;7.50;99.90;;;;;;5095370;28;20020;-54
2024/01/19 00:25:18;;;;;;;198.02;94.85;;;7.60;99.90;;;;;;5095268;28;20028;-54
2024/01/19 00:27:45;;;;;;;226.13;104.22;;;7.60;99.90;;;;;;5095134;28;20099;-54
2024/01/19 00:30:11;;;;;;;233.48;107.47;;;7.60;99.90;;;;;;5095402;28;20047;-54
2024/01/19 00:32:37;;;;;;;251.50;112.35;;;7.60;99.90;;;;;;5095182;28;20107;-54
2024/01/19 00:35:03;;;;;;;252.40;113.32;;;7.70;99.90;;;;;;5095177;28;20078;-54
2024/01/19 00:37:29;;;;;;;248.63;109.13;;;7.70;99.90;;;;;;5095288;28;20047;-54
2024/01/19 00:39:55;;;;;;;217.77;96.18;;;7.70;99.90;;;;;;5095276;28;20028;-54
2024/01/19 00:42:20;;;;;;;290.55;114.57;;;7.70;99.90;;;;;;5094943;28;20564;-54
2024/01/19 00:44:46;;;;;;;306.33;116.85;;;7.70;99.90;;;;;;5095104;28;20021;-54
2024/01/19 00:47:12;;;;;;;264.05;104.28;;;7.80;99.90;;;;;;5095022;28;20089;-54
2024/01/19 00:49:38;;;;;;;214.50;90.53;;;7.80;99.90;;;;;;5095205;28;20035;-54
2024/01/19 00:52:04;;;;;;;199.00;82.85;;;7.90;99.90;;;;;;5095040;28;20059;-54
2024/01/19 00:54:30;;;;;;;214.93;85.13;;;8.00;99.90;;;;;;5095144;28;20392;-54
2024/01/19 00:56:56;;;;;;;213.48;86.53;;;8.00;99.90;;;;;;5098350;28;20051;-54
2024/01/19 00:59:21;;;;;;;195.18;84.13;;;8.10;99.90;;;;;;5098709;28;20036;-54
2024/01/19 01:01:47;;;;;;;188.05;80.00;;;8.20;99.90;;;;;;5098553;28;20036;-54
2024/01/19 01:04:14;;;;;;;173.73;76.55;;;8.20;99.90;;;;;;5098690;28;20020;-54
2024/01/19 01:06:39;;;;;;;173.40;72.22;;;8.20;99.90;;;;;;5098398;28;20146;-54
2024/01/19 01:09:05;;;;;;;161.63;70.13;;;8.20;99.90;;;;;;5098554;28;20058;-54
2024/01/19 01:11:31;;;;;;;147.85;63.97;;;8.20;99.90;;;;;;5098413;28;20032;-54
2024/01/19 01:13:57;;;;;;;302.65;108.78;;;8.20;99.90;;;;;;5098505;28;20024;-54
2024/01/19 01:16:23;;;;;;;256.05;92.95;;;8.00;99.90;;;;;;5098017;28;20031;-55
2024/01/19 01:18:49;;;;;;;181.40;71.10;;;8.00;99.90;;;;;;5098344;28;20488;-55
2024/01/19 01:21:15;;;;;;;131.75;57.70;;;7.90;99.90;;;;;;5098320;28;20032;-54
2024/01/19 01:23:41;;;;;;;209.45;84.53;;;7.80;99.90;;;;;;5098229;28;20035;-54
2024/01/19 01:26:08;;;;;;;142.88;64.13;;;7.80;99.90;;;;;;5098071;28;20471;-54
2024/01/19 01:28:34;;;;;;;214.88;87.93;;;7.80;99.90;;;;;;5097953;28;20036;-54
2024/01/19 01:30:59;;;;;;;197.15;90.03;;;7.80;99.90;;;;;;5098151;28;20028;-54
2024/01/19 01:33:25;;;;;;;214.07;101.28;;;7.70;99.90;;;;;;5098094;28;20039;-54
2024/01/19 01:35:51;;;;;;;264.80;122.90;;;7.70;99.90;;;;;;5098054;28;20028;-54
2024/01/19 01:38:17;;;;;;;255.90;117.82;;;7.60;99.90;;;;;;5097785;28;20096;-54
2024/01/19 01:40:42;;;;;;;239.75;114.32;;;7.70;99.90;;;;;;5097792;28;20469;-54
2024/01/19 01:43:08;;;;;;;223.35;108.40;;;7.70;99.90;;;;;;5098142;28;20024;-54
2024/01/19 01:45:34;;;;;;;204.32;100.75;;;7.80;99.90;;;;;;5097720;28;20046;-54
2024/01/19 01:48:00;;;;;;;196.05;94.75;;;7.80;99.90;;;;;;5097689;28;20031;-54
2024/01/19 01:50:26;;;;;;;180.40;86.13;;;7.80;99.90;;;;;;5097482;28;20500;-54
2024/01/19 01:52:53;;;;;;;174.13;81.35;;;7.80;99.90;;;;;;5097753;28;20024;-54
2024/01/19 01:55:19;;;;;;;192.80;90.63;;;7.80;99.90;;;;;;5097612;28;20523;-54
2024/01/19 01:57:46;;;;;;;220.70;101.57;;;7.90;99.90;;;;;;5097453;28;20020;-54
2024/01/19 02:00:14;;;;;;;185.35;82.70;;;7.90;99.90;;;;;;5097281;28;20032;-54
2024/01/19 02:02:40;;;;;;;158.98;75.10;;;8.00;99.90;;;;;;5097174;28;20036;-55
2024/01/19 02:05:06;;;;;;;147.95;68.63;;;8.10;99.90;;;;;;5097466;28;20033;-54
2024/01/19 02:07:32;;;;;;;141.25;65.38;;;8.20;99.90;;;;;;5096154;28;20024;-54
2024/01/19 02:09:58;;;;;;;134.82;66.40;;;8.20;99.90;;;;;;5097203;28;20067;-54
2024/01/19 02:12:25;;;;;;;165.77;72.93;;;8.20;99.90;;;;;;5097072;28;20047;-54
2024/01/19 02:14:51;;;;;;;164.63;78.05;;;8.30;99.90;;;;;;5097272;28;20040;-54
2024/01/19 02:17:16;;;;;;;168.82;76.53;;;8.30;99.90;;;;;;5097223;28;20389;-55
2024/01/19 02:19:42;;;;;;;159.63;80.25;;;8.30;99.90;;;;;;5097164;28;20362;-54
2024/01/19 02:22:08;;;;;;;175.57;85.90;;;8.30;99.90;;;;;;5096941;28;20028;-54
2024/01/19 02:24:35;;;;;;;175.60;85.07;;;8.30;99.90;;;;;;5096921;28;20050;-54
2024/01/19 02:27:02;;;;;;;184.85;87.80;;;8.20;99.90;;;;;;5097000;28;20024;-54
2024/01/19 02:29:28;;;;;;;172.73;81.60;;;8.20;99.90;;;;;;5096883;28;20031;-54
2024/01/19 02:31:54;;;;;;;175.95;84.15;;;8.20;99.90;;;;;;5096997;28;20050;-54
2024/01/19 02:34:21;;;;;;;159.23;78.10;;;8.10;99.90;;;;;;5096874;28;20024;-54
2024/01/19 02:36:46;;;;;;;158.18;76.63;;;8.20;99.90;;;;;;5096846;28;20038;-54
2024/01/19 02:39:13;;;;;;;175.45;83.30;;;8.10;99.90;;;;;;5096737;28;20028;-54
2024/01/19 02:41:40;;;;;;;151.73;72.95;;;8.10;99.90;;;;;;5096672;28;20034;-54
2024/01/19 02:44:05;;;;;;;143.70;69.88;;;8.00;99.90;;;;;;5096750;28;20100;-55
2024/01/19 02:46:31;;;;;;;129.77;66.22;;;8.00;99.90;;;;;;5096507;28;20040;-54
2024/01/19 02:48:57;;;;;;;128.45;62.55;;;7.90;99.90;;;;;;5094384;28;20023;-54
2024/01/19 02:51:23;;;;;;;128.63;59.65;;;7.90;99.90;;;;;;5096437;28;20450;-54
2024/01/19 02:53:49;;;;;;;118.50;57.13;;;7.90;99.90;;;;;;5096550;28;20087;-54
2024/01/19 02:56:15;;;;;;;122.88;58.60;;;7.90;99.90;;;;;;5096519;28;20397;-54
2024/01/19 02:58:40;;;;;;;116.95;58.33;;;7.80;99.90;;;;;;5096285;28;20032;-54
2024/01/19 03:01:08;;;;;;;120.32;57.42;;;7.90;99.90;;;;;;5096347;28;20381;-54
2024/01/19 03:03:34;;;;;;;132.82;62.70;;;8.00;99.90;;;;;;5096438;28;20069;-54
2024/01/19 03:06:00;;;;;;;139.80;65.75;;;8.00;99.90;;;;;;5096307;28;20016;-54
2024/01/19 03:08:26;;;;;;;133.50;64.15;;;8.00;99.90;;;;;;5096117;28;20023;-54
2024/01/19 03:10:52;;;;;;;129.85;63.10;;;8.00;99.90;;;;;;5096101;28;20366;-54
2024/01/19 03:13:17;;;;;;;133.95;63.80;;;8.00;99.90;;;;;;5096008;28;20140;-54
2024/01/19 03:15:43;;;;;;;126.35;61.88;;;8.00;99.90;;;;;;5096197;28;20023;-54
2024/01/19 03:18:09;;;;;;;133.07;63.60;;;8.00;99.90;;;;;;5095692;28;20059;-54
2024/01/19 03:20:35;;;;;;;127.70;63.95;;;8.00;99.90;;;;;;5095951;28;20034;-54
2024/01/19 03:23:01;;;;;;;120.90;60.75;;;8.00;99.90;;;;;;5096382;28;20111;-54
2024/01/19 03:25:27;;;;;;;127.50;60.25;;;8.10;99.90;;;;;;5095874;28;20039;-54
2024/01/19 03:27:53;;;;;;;118.35;55.47;;;8.20;99.90;;;;;;5096047;28;20052;-54
2024/01/19 03:30:20;;;;;;;108.28;54.33;;;8.20;99.90;;;;;;5095982;28;20059;-54
2024/01/19 03:32:46;;;;;;;118.13;56.50;;;8.20;99.90;;;;;;5095972;28;20515;-54
2024/01/19 03:35:11;;;;;;;120.15;56.05;;;8.20;99.90;;;;;;5095727;28;20032;-54
2024/01/19 03:37:37;;;;;;;113.47;57.08;;;8.30;99.90;;;;;;5095729;28;20031;-54
2024/01/19 03:40:06;;;;;;;118.90;58.55;;;8.20;99.90;;;;;;5095855;28;20017;-54
2024/01/19 03:42:31;;;;;;;116.32;56.33;;;8.30;99.90;;;;;;5095673;28;20035;-54
2024/01/19 03:44:57;;;;;;;113.13;53.70;;;8.30;99.90;;;;;;5095782;28;20024;-54
2024/01/19 03:47:23;;;;;;;116.45;54.33;;;8.30;99.90;;;;;;5095722;28;20420;-54
2024/01/19 03:49:49;;;;;;;110.93;54.65;;;8.30;99.90;;;;;;5095312;28;20036;-54
2024/01/19 03:52:16;;;;;;;104.50;53.00;;;8.30;99.90;;;;;;5095941;28;20432;-54
2024/01/19 03:54:42;;;;;;;115.07;57.17;;;8.40;99.90;;;;;;5095653;28;20024;-54
2024/01/19 03:57:08;;;;;;;196.10;95.43;;;8.30;99.90;;;;;;5095657;28;20027;-54
2024/01/19 03:59:34;;;;;;;202.60;99.38;;;8.30;99.90;;;;;;5095614;28;20032;-54
2024/01/19 04:02:00;;;;;;;169.45;83.40;;;8.40;99.90;;;;;;5095435;28;20054;-54
2024/01/19 04:04:26;;;;;;;149.18;73.60;;;8.40;99.90;;;;;;5095268;28;20027;-55
2024/01/19 04:06:53;;;;;;;135.23;67.55;;;8.40;99.90;;;;;;5095324;28;20457;-54
2024/01/19 04:09:19;;;;;;;124.50;62.05;;;8.30;99.90;;;;;;5095566;28;20039;-54
2024/01/19 04:11:45;;;;;;;113.65;56.25;;;8.30;99.90;;;;;;5095500;28;20032;-54
2024/01/19 04:14:12;;;;;;;101.18;53.85;;;8.30;99.90;;;;;;5095462;28;20082;-54
2024/01/19 04:16:38;;;;;;;117.13;55.90;;;8.20;99.90;;;;;;5095296;28;20028;-54
2024/01/19 04:19:05;;;;;;;99.10;52.72;;;8.20;99.90;;;;;;5095228;28;20058;-54
2024/01/19 04:21:31;;;;;;;120.20;58.88;;;8.20;99.90;;;;;;5095197;28;20044;-54
2024/01/19 04:23:57;;;;;;;109.78;53.55;;;8.20;99.90;;;;;;5095310;28;20032;-54
2024/01/19 04:26:23;;;;;;;104.63;54.17;;;8.20;99.90;;;;;;5095326;28;20390;-54
2024/01/19 04:28:49;;;;;;;99.88;51.58;;;8.30;99.90;;;;;;5095252;28;20024;-54
2024/01/19 04:31:15;;;;;;;93.72;47.20;;;8.30;99.90;;;;;;5097805;28;20086;-54
2024/01/19 04:33:41;;;;;;;87.35;45.28;;;8.30;99.90;;;;;;5099171;28;20035;-54
2024/01/19 04:36:07;;;;;;;96.05;45.65;;;8.30;99.90;;;;;;5098961;28;20138;-54
2024/01/19 04:38:33;;;;;;;92.55;46.95;;;8.30;99.90;;;;;;5099074;28;20024;-54
2024/01/19 04:40:59;;;;;;;82.55;37.10;;;8.40;99.90;;;;;;5099224;28;20035;-54
2024/01/19 04:43:25;;;;;;;68.88;34.75;;;8.40;99.90;;;;;;5099314;28;20046;-54
2024/01/19 04:45:50;;;;;;;92.75;38.75;;;8.40;99.90;;;;;;5098912;28;20119;-54
2024/01/19 04:48:16;;;;;;;82.95;38.05;;;8.50;99.90;;;;;;5098469;28;20085;-54
2024/01/19 04:50:42;;;;;;;72.85;36.97;;;8.50;99.90;;;;;;5098782;28;20044;-54
2024/01/19 04:53:08;;;;;;;103.47;47.50;;;8.60;99.90;;;;;;5099137;28;20016;-54
2024/01/19 04:55:34;;;;;;;98.78;46.75;;;8.60;99.90;;;;;;5098786;28;20035;-54
2024/01/19 04:58:00;;;;;;;181.27;81.80;;;8.60;99.90;;;;;;5098694;28;20032;-54
2024/01/19 05:00:26;;;;;;;67.72;32.55;;;8.60;99.90;;;;;;5098548;28;20126;-54
2024/01/19 05:02:52;;;;;;;60.00;31.27;;;8.60;99.90;;;;;;5098620;28;20028;-54
2024/01/19 05:05:18;;;;;;;66.38;30.08;;;8.60;99.90;;;;;;5098643;28;20028;-54
2024/01/19 05:07:44;;;;;;;63.25;30.23;;;8.60;99.90;;;;;;5098468;28;20034;-54
2024/01/19 05:10:10;;;;;;;55.38;28.58;;;8.60;99.90;;;;;;5098586;28;20091;-54
2024/01/19 05:12:35;;;;;;;59.78;30.92;;;8.60;99.90;;;;;;5098439;28;20024;-54
2024/01/19 05:15:02;;;;;;;59.88;27.88;;;8.80;99.90;;;;;;5098310;28;20396;-54
2024/01/19 05:17:28;;;;;;;72.10;35.67;;;8.80;99.90;;;;;;5098268;28;20431;-54
2024/01/19 05:19:55;;;;;;;61.13;29.75;;;8.80;99.90;;;;;;5098350;28;20030;-54
2024/01/19 05:22:21;;;;;;;101.28;48.47;;;8.80;99.90;;;;;;5098218;28;20047;-54
2024/01/19 05:24:47;;;;;;;74.57;33.28;;;8.90;99.90;;;;;;5098143;28;20385;-54
2024/01/19 05:27:13;;;;;;;60.55;32.50;;;8.90;99.90;;;;;;5098199;28;20484;-54
2024/01/19 05:29:40;;;;;;;56.05;22.75;;;9.00;99.90;;;;;;5098134;28;20020;-54
2024/01/19 05:32:07;;;;;;;41.08;19.58;;;9.00;99.90;;;;;;5097981;28;20373;-54
2024/01/19 05:34:33;;;;;;;31.63;12.05;;;9.00;99.90;;;;;;5098347;28;20029;-54
2024/01/19 05:36:58;;;;;;;26.80;9.05;;;9.10;99.90;;;;;;5097970;28;20032;-54
2024/01/19 05:39:24;;;;;;;17.83;7.20;;;9.10;99.90;;;;;;5097929;28;20111;-54
2024/01/19 05:41:50;;;;;;;22.30;10.07;;;9.10;99.90;;;;;;5097714;28;20089;-54
2024/01/19 05:44:16;;;;;;;28.20;9.75;;;9.10;99.90;;;;;;5097819;28;20059;-54
2024/01/19 05:46:42;;;;;;;21.00;6.38;;;9.10;99.90;;;;;;5097715;28;20469;-54
2024/01/19 05:49:08;;;;;;;11.00;5.22;;;9.10;99.90;;;;;;5097528;28;20024;-54
2024/01/19 05:51:34;;;;;;;10.68;4.32;;;9.10;99.90;;;;;;5097738;28;20071;-54
2024/01/19 05:53:59;;;;;;;9.43;3.70;;;9.20;99.90;;;;;;5097691;28;20073;-54
2024/01/19 05:56:25;;;;;;;14.80;3.42;;;9.10;99.90;;;;;;5097677;28;20434;-54
2024/01/19 05:58:51;;;;;;;10.57;4.05;;;9.10;99.90;;;;;;5097512;28;20035;-54
2024/01/19 06:01:17;;;;;;;14.18;3.53;;;9.00;99.90;;;;;;5097592;28;20024;-54
2024/01/19 06:03:43;;;;;;;13.95;5.00;;;9.00;99.90;;;;;;5097822;28;20028;-54
2024/01/19 06:06:09;;;;;;;17.70;5.72;;;8.90;99.90;;;;;;5097437;28;20492;-54
2024/01/19 06:08:35;;;;;;;14.98;5.70;;;8.80;99.90;;;;;;5097225;28;20119;-54
2024/01/19 06:11:01;;;;;;;15.35;6.20;;;8.70;99.90;;;;;;5097413;28;20428;-54
2024/01/19 06:13:27;;;;;;;16.63;7.13;;;8.60;99.90;;;;;;5097207;28;20409;-54
2024/01/19 06:15:53;;;;;;;15.00;5.32;;;8.50;99.90;;;;;;5097135;28;20039;-54
2024/01/19 06:18:19;;;;;;;35.58;11.38;;;8.40;99.90;;;;;;5096650;28;20075;-54
2024/01/19 06:20:45;;;;;;;19.38;6.18;;;8.30;99.90;;;;;;5095147;28;20092;-54
2024/01/19 06:23:11;;;;;;;63.05;18.73;;;8.30;99.90;;;;;;5095223;28;20131;-54
2024/01/19 06:25:40;;;;;;;82.20;34.55;;;8.30;99.90;;;;;;5097184;28;20029;-54
2024/01/19 06:28:06;;;;;;;50.40;20.85;;;8.30;99.90;;;;;;5096511;28;20454;-54
2024/01/19 06:30:33;;;;;;;43.42;13.00;;;8.20;99.90;;;;;;5087953;28;20050;-54
2024/01/19 06:32:59;;;;;;;38.08;12.00;;;8.10;99.90;;;;;;5090377;28;20053;-54
2024/01/19 06:35:25;;;;;;;41.22;12.13;;;8.10;99.90;;;;;;5089065;28;20035;-54
2024/01/19 06:37:51;;;;;;;60.78;18.27;;;8.00;99.90;;;;;;5096155;28;20032;-54
2024/01/19 06:40:18;;;;;;;30.77;11.20;;;7.90;99.90;;;;;;5096606;28;20025;-54
2024/01/19 06:42:46;;;;;;;91.90;24.85;;;7.80;99.90;;;;;;5096414;28;20043;-54
2024/01/19 06:45:18;;;;;;;42.30;13.20;;;7.80;99.90;;;;;;5095897;28;20085;-54
2024/01/19 06:47:45;;;;;;;47.45;15.38;;;7.70;99.90;;;;;;5093624;28;20063;-54
2024/01/19 06:50:11;;;;;;;53.75;17.00;;;7.60;99.90;;;;;;5085620;28;20086;-54
2024/01/19 06:52:37;;;;;;;57.95;24.25;;;7.50;99.90;;;;;;5087317;28;20027;-54
2024/01/19 06:55:04;;;;;;;15.48;7.55;;;7.50;99.90;;;;;;5092608;28;20029;-54
2024/01/19 06:57:30;;;;;;;7.20;5.78;;;7.50;99.90;;;;;;5091428;28;20021;-54
2024/01/19 06:59:56;;;;;;;7.68;5.47;;;7.40;99.90;;;;;;5088746;28;20058;-54
2024/01/19 07:02:23;;;;;;;10.65;9.60;;;7.40;99.90;;;;;;5093098;28;20385;-54
2024/01/19 07:04:49;;;;;;;38.85;24.70;;;7.40;99.90;;;;;;5086503;28;20015;-54
2024/01/19 07:07:15;;;;;;;20.17;14.60;;;7.40;99.90;;;;;;5094300;28;20035;-54
2024/01/19 07:09:41;;;;;;;19.73;16.35;;;7.40;99.90;;;;;;5095450;28;20036;-55
2024/01/19 07:12:07;;;;;;;11.95;9.25;;;7.30;99.90;;;;;;5095798;28;20036;-54
2024/01/19 07:14:33;;;;;;;10.98;9.70;;;7.30;99.90;;;;;;5095954;28;20115;-54
2024/01/19 07:16:59;;;;;;;7.00;6.22;;;7.40;99.90;;;;;;5095872;28;20077;-54
2024/01/19 07:19:25;;;;;;;7.57;5.68;;;7.40;99.90;;;;;;5095277;28;20473;-54
2024/01/19 07:21:50;;;;;;;8.77;6.10;;;7.30;99.90;;;;;;5094592;28;20075;-54
2024/01/19 07:24:17;;;;;;;8.77;6.35;;;7.40;99.90;;;;;;5094938;28;20033;-54
2024/01/19 07:26:43;;;;;;;10.00;6.30;;;7.40;99.90;;;;;;5093916;28;20369;-54
2024/01/19 07:29:09;;;;;;;9.63;8.55;;;7.30;99.90;;;;;;5095109;28;20115;-54
2024/01/19 07:31:36;;;;;;;11.48;8.27;;;7.40;99.90;;;;;;5091395;28;20107;-54
2024/01/19 07:34:03;;;;;;;5.72;5.07;;;7.40;99.90;;;;;;5087318;28;20036;-54
2024/01/19 07:36:29;;;;;;;5.22;3.95;;;7.30;99.90;;;;;;5094585;28;20031;-54
2024/01/19 07:38:55;;;;;;;10.57;6.28;;;7.40;99.90;;;;;;5095372;28;20020;-54
2024/01/19 07:41:21;;;;;;;5.05;4.00;;;7.40;99.90;;;;;;5089776;28;20035;-54
2024/01/19 07:43:47;;;;;;;6.25;4.65;;;7.40;99.90;;;;;;5088758;28;20047;-54
2024/01/19 07:46:16;;;;;;;6.72;3.92;;;7.40;99.90;;;;;;5085934;28;20024;-54
2024/01/19 07:48:43;;;;;;;5.68;3.80;;;7.30;99.90;;;;;;5095440;28;20077;-54
2024/01/19 07:51:09;;;;;;;7.30;4.80;;;7.40;99.90;;;;;;5096073;28;20078;-54
2024/01/19 07:53:35;;;;;;;5.22;4.03;;;7.40;99.90;;;;;;5094895;28;20040;-54
2024/01/19 07:56:01;;;;;;;6.97;4.38;;;7.30;99.90;;;;;;5094614;28;20035;-54
2024/01/19 07:58:27;;;;;;;7.53;4.90;;;7.20;99.90;;;;;;5095951;28;20032;-54
2024/01/19 08:00:53;;;;;;;8.82;5.55;;;7.20;99.90;;;;;;5080013;28;20351;-54
2024/01/19 08:03:21;;;;;;;9.52;5.68;;;7.20;99.90;;;;;;5075629;28;20066;-54
2024/01/19 08:05:47;;;;;;;14.93;9.75;;;7.10;99.90;;;;;;5088988;28;20614;-54
2024/01/19 08:08:12;;;;;;;12.52;7.60;;;7.00;99.90;;;;;;5099733;28;20378;-54
2024/01/19 08:10:38;;;;;;;18.20;9.55;;;7.00;99.90;;;;;;5099906;28;20028;-54
2024/01/19 08:13:04;;;;;;;39.92;20.98;;;6.80;99.90;;;;;;5099332;28;20024;-54
2024/01/19 08:15:30;;;;;;;8.15;6.00;;;6.90;99.90;;;;;;5099504;28;20024;-54
2024/01/19 08:17:56;;;;;;;14.80;9.43;;;6.60;99.90;;;;;;5097833;28;20028;-54
2024/01/19 08:20:24;;;;;;;47.47;25.23;;;6.60;99.90;;;;;;5099013;28;20514;-54
2024/01/19 08:22:52;;;;;;;21.20;13.93;;;6.60;99.90;;;;;;5098351;28;20024;-54
2024/01/19 08:25:18;;;;;;;19.05;11.10;;;6.50;99.90;;;;;;5098589;28;20035;-54
2024/01/19 08:27:44;;;;;;;24.73;14.57;;;6.40;99.90;;;;;;5092839;28;20020;-54
2024/01/19 08:30:11;;;;;;;39.45;15.02;;;6.30;99.90;;;;;;5096446;28;20075;-54
2024/01/19 08:32:37;;;;;;;57.13;34.88;;;6.20;99.90;;;;;;5097445;28;20040;-54
2024/01/19 08:35:09;;;;;;;32.78;16.27;;;6.20;99.90;;;;;;5090284;28;20035;-54
2024/01/19 08:37:39;;;;;;;38.40;16.77;;;6.20;99.90;;;;;;5096576;28;20024;-54
2024/01/19 08:40:10;;;;;;;80.47;28.13;;;6.10;99.90;;;;;;5098191;28;20035;-54
2024/01/19 08:42:37;;;;;;;31.85;13.52;;;6.00;99.90;;;;;;5096110;28;20051;-54
2024/01/19 08:45:04;;;;;;;33.40;19.77;;;5.80;99.90;;;;;;5098632;28;20054;-54
2024/01/19 08:47:30;;;;;;;15.13;8.23;;;5.80;99.90;;;;;;5092020;28;20024;-54
2024/01/19 08:49:56;;;;;;;23.42;8.38;;;5.70;99.90;;;;;;5096964;28;20490;-54
2024/01/19 08:52:22;;;;;;;20.92;8.32;;;5.50;99.90;;;;;;5097825;28;20027;-54
2024/01/19 08:54:48;;;;;;;29.75;10.43;;;5.60;99.90;;;;;;5098361;28;20020;-54
2024/01/19 08:57:14;;;;;;;18.92;8.05;;;5.50;99.90;;;;;;5097548;28;20073;-54
2024/01/19 08:59:40;;;;;;;20.20;7.13;;;5.40;99.90;;;;;;5092064;28;20070;-54
2024/01/19 09:02:07;;;;;;;18.85;7.03;;;5.40;99.90;;;;;;5098266;28;20024;-54
2024/01/19 09:04:34;;;;;;;17.30;6.88;;;5.50;99.90;;;;;;5097932;28;20028;-54
2024/01/19 09:07:00;;;;;;;11.20;7.38;;;5.30;99.90;;;;;;5097921;28;20103;-54
2024/01/19 09:09:26;;;;;;;15.65;8.00;;;5.40;99.90;;;;;;5097962;28;20570;-54
2024/01/19 09:11:53;;;;;;;13.65;6.65;;;5.10;99.90;;;;;;5098180;28;20032;-54
2024/01/19 09:14:20;;;;;;;11.90;6.15;;;5.10;99.90;;;;;;5097826;28;20028;-54
2024/01/19 09:16:46;;;;;;;18.98;9.35;;;5.00;99.90;;;;;;5096320;28;20027;-54
2024/01/19 09:19:13;;;;;;;10.05;6.40;;;4.90;99.90;;;;;;5096962;28;20040;-54
2024/01/19 09:21:39;;;;;;;11.43;5.70;;;4.80;99.90;;;;;;5097699;28;20358;-54
2024/01/19 09:24:06;;;;;;;17.02;7.70;;;4.70;99.90;;;;;;5097695;28;20036;-54
2024/01/19 09:26:32;;;;;;;23.85;10.88;;;4.60;99.90;;;;;;5097394;28;20044;-54
2024/01/19 09:28:58;;;;;;;20.35;11.45;;;4.40;99.90;;;;;;5094742;28;20109;-54
2024/01/19 09:31:25;;;;;;;19.20;9.93;;;4.40;99.90;;;;;;5096288;28;20038;-54
2024/01/19 09:33:50;;;;;;;20.67;10.60;;;4.20;99.90;;;;;;5097973;28;20077;-54
2024/01/19 09:36:16;;;;;;;21.90;10.52;;;4.20;99.90;;;;;;5097711;28;20023;-54
2024/01/19 09:38:43;;;;;;;18.77;9.05;;;4.00;99.90;;;;;;5097650;28;20032;-54
2024/01/19 09:41:26;;;;;;;17.65;8.65;;;3.90;99.90;;;;;;5096780;28;20047;-54
2024/01/19 09:43:57;;;;;;;41.33;16.85;;;3.80;99.90;;;;;;5097819;28;20028;-54
2024/01/19 09:46:25;;;;;;;;;;;3.70;99.90;;;;;;5096220;28;20074;-54
2024/01/19 09:49:03;;;;;;;22.85;9.43;;;3.70;99.90;;;;;;5089153;28;20353;-54
2024/01/19 09:51:56;;;;;;;11.77;6.00;;;3.60;99.90;;;;;;5092457;28;20048;-54
2024/01/19 09:54:34;;;;;;;14.63;6.18;;;3.60;99.90;;;;;;5096501;28;20062;-54
2024/01/19 09:57:02;;;;;;;22.40;9.50;;;3.60;99.90;;;;;;5094819;28;20021;-54
2024/01/19 09:59:32;;;;;;;18.80;7.85;;;3.70;99.90;;;;;;5086870;28;20052;-54
2024/01/19 10:02:01;;;;;;;;;;;3.60;99.90;;;;;;5088478;28;20036;-54
2024/01/19 10:04:29;;;;;;;26.88;7.50;;;3.70;99.90;;;;;;5091155;28;19908;-54
2024/01/19 10:06:55;;;;;;;22.20;6.97;;;3.80;99.90;;;;;;5087713;28;20366;-54
2024/01/19 10:09:24;;;;;;;14.98;5.85;;;3.80;99.90;;;;;;5096724;28;20485;-54
2024/01/19 10:11:52;;;;;;;39.53;13.20;;;3.80;99.90;;;;;;5096479;28;20103;-54
2024/01/19 10:14:18;;;;;;;24.50;9.35;;;3.80;99.90;;;;;;5096422;28;20066;-54
2024/01/19 10:16:44;;;;;;;18.25;6.75;;;3.90;99.90;;;;;;5096775;28;20111;-54
2024/01/19 10:19:13;;;;;;;22.38;7.85;;;3.80;99.90;;;;;;5096621;28;20036;-54
2024/01/19 10:21:42;;;;;;;13.10;5.45;;;4.00;99.90;;;;;;5096901;28;20073;-54
2024/01/19 10:24:19;;;;;;;18.23;5.78;;;3.80;99.90;;;;;;5096981;28;20112;-54
2024/01/19 10:26:58;;;;;;;7.78;4.22;;;3.90;99.90;;;;;;5096533;28;20134;-54
2024/01/19 10:29:23;;;;;;;8.18;4.22;;;3.90;99.90;;;;;;5095985;28;20020;-54
2024/01/19 10:31:52;;;;;;;13.50;5.38;;;3.80;99.90;;;;;;5096915;28;20111;-54
2024/01/19 10:34:23;;;;;;;12.38;5.63;;;3.90;99.90;;;;;;5096750;28;20118;-54
2024/01/19 10:36:51;;;;;;;14.68;7.47;;;3.90;99.90;;;;;;5096480;28;20105;-54
2024/01/19 10:39:22;;;;;;;21.52;10.15;;;3.80;99.90;;;;;;5096339;28;20111;-54
2024/01/19 10:41:49;;;;;;;27.75;11.27;;;3.70;99.90;;;;;;5087548;28;20040;-54
2024/01/19 10:44:19;;;;;;;31.83;13.30;;;3.80;99.90;;;;;;5078847;28;20043;-54
2024/01/19 10:46:45;;;;;;;29.17;13.90;;;3.80;99.90;;;;;;5095292;28;20020;-54
2024/01/19 10:49:15;;;;;;;18.58;10.98;;;3.80;99.90;;;;;;5095734;28;20040;-54
2024/01/19 10:51:43;;;;;;;23.02;14.23;;;3.80;99.90;;;;;;5087904;28;20077;-54
2024/01/19 10:54:16;;;;;;;16.83;8.02;;;3.90;99.90;;;;;;5090588;28;20039;-54
2024/01/19 10:56:46;;;;;;;13.55;8.93;;;3.90;99.90;;;;;;5095768;28;20028;-54
2024/01/19 10:59:13;;;;;;;21.27;12.20;;;3.90;99.90;;;;;;5093251;28;20051;-54
2024/01/19 11:01:40;;;;;;;21.33;12.13;;;3.80;99.90;;;;;;5083268;28;20109;-54
2024/01/19 11:04:12;;;;;;;23.00;13.05;;;3.80;99.90;;;;;;5079587;28;20021;-54
2024/01/19 11:06:38;;;;;;;18.35;10.43;;;3.70;99.90;;;;;;5083598;28;20063;-54
2024/01/19 11:09:06;;;;;;;19.75;11.07;;;3.80;99.90;;;;;;5089156;28;20111;-54
2024/01/19 11:11:49;;;;;;;15.45;8.93;;;3.60;99.90;;;;;;5094697;28;20409;-54
2024/01/19 11:14:20;;;;;;;29.75;11.93;;;3.60;99.90;;;;;;5096331;28;20103;-54
2024/01/19 11:16:47;;;;;;;72.03;27.42;;;3.60;99.90;;;;;;5095265;28;20024;-54
2024/01/19 11:19:17;;;;;;;95.90;35.28;;;3.60;99.90;;;;;;5076977;28;20151;-54
2024/01/19 11:21:44;;;;;;;77.10;26.48;;;3.60;99.90;;;;;;5096194;28;20028;-54
2024/01/19 11:24:14;;;;;;;64.40;23.02;;;3.50;99.90;;;;;;5095836;28;20020;-54
2024/01/19 11:27:06;;;;;;;37.15;14.20;;;3.50;99.90;;;;;;5095798;28;20032;-54
2024/01/19 11:29:33;;;;;;;17.13;8.93;;;3.60;99.90;;;;;;5095641;28;20039;-54
2024/01/19 11:32:01;;;;;;;20.88;10.38;;;3.50;99.90;;;;;;5095964;28;20209;-54
2024/01/19 11:34:55;;;;;;;40.72;15.43;;;3.50;99.90;;;;;;5088685;28;20044;-54
2024/01/19 11:37:46;;;;;;;47.33;16.65;;;3.40;99.90;;;;;;5085197;28;20074;-54
2024/01/19 11:40:24;;;;;;;39.63;15.63;;;3.50;99.90;;;;;;5093674;28;20028;-54
2024/01/19 11:42:51;;;;;;;48.65;20.15;;;3.40;99.90;;;;;;5075314;28;20028;-54
2024/01/19 11:45:40;;;;;;;51.88;18.83;;;3.40;99.90;;;;;;5075584;28;20413;-54
2024/01/19 11:48:07;;;;;;;34.13;14.43;;;3.40;99.90;;;;;;5083352;28;20060;-54
2024/01/19 11:50:43;;;;;;;31.27;11.05;;;3.40;99.90;;;;;;5095387;28;20032;-54
2024/01/19 11:53:11;;;;;;;19.98;8.10;;;3.30;99.90;;;;;;5095589;28;20027;-54
2024/01/19 11:55:39;;;;;;;28.50;10.00;;;3.30;99.90;;;;;;5095532;28;20023;-54
2024/01/19 11:58:25;;;;;;;40.45;14.80;;;3.20;99.90;;;;;;5095520;28;20028;-54
2024/01/19 12:00:54;;;;;;;22.92;8.98;;;3.20;99.90;;;;;;5095461;28;20024;-54
2024/01/19 12:03:20;;;;;;;17.30;7.90;;;3.20;99.90;;;;;;5095551;28;20020;-54
2024/01/19 12:05:48;;;;;;;19.02;7.97;;;3.10;99.90;;;;;;5093210;28;20358;-54
2024/01/19 12:08:14;;;;;;;18.40;8.43;;;3.10;99.90;;;;;;5094089;28;20035;-54
2024/01/19 12:10:42;;;;;;;20.77;9.80;;;3.20;99.90;;;;;;5094061;28;20020;-54
2024/01/19 12:13:09;;;;;;;27.38;9.60;;;3.20;99.90;;;;;;5089882;28;20247;-54
2024/01/19 12:15:35;;;;;;;19.38;9.05;;;3.30;99.90;;;;;;5092593;28;20020;-54
2024/01/19 12:18:04;;;;;;;14.02;7.25;;;3.20;99.90;;;;;;5094594;28;20386;-54
2024/01/19 12:20:31;;;;;;;22.45;10.13;;;3.30;99.90;;;;;;5094793;28;20024;-54
2024/01/19 12:22:57;;;;;;;27.40;11.88;;;3.40;99.90;;;;;;5095208;28;20024;-54
2024/01/19 12:25:24;;;;;;;27.80;12.05;;;3.40;99.90;;;;;;5095742;28;20107;-54
2024/01/19 12:28:02;;;;;;;29.38;11.20;;;3.30;99.90;;;;;;5092917;28;20055;-54
2024/01/19 12:30:34;;;;;;;28.00;11.10;;;3.30;99.90;;;;;;5094314;28;20055;-54
2024/01/19 12:33:18;;;;;;;21.80;9.93;;;3.30;99.90;;;;;;5094203;28;20031;-54
2024/01/19 12:35:47;;;;;;;29.25;11.38;;;3.30;99.90;;;;;;5094703;28;20032;-54
2024/01/19 12:38:15;;;;;;;13.77;7.63;;;3.20;99.90;;;;;;5092692;28;20021;-54